Tropical Cyclones
[Index]
Main Index Home Page Stock Weather Photos Extreme Storms Discussion Storm News and Storm Chasing Reports Tropical Cyclones / Hurricanes / Typhoons Weather Data and Links Wild Fires / Bushfires Weather Observation Techniques Weather Picture Catalogue Tornado Pictures and Reports Stock Video Footage and DVDs for sale
Season 2011-2012 Tropical Cyclone BENILDE Track Map
Season 2011-2012 Summaries (Operational Data): [AU] [SIO] [SPAC] [SH]
<<- Previous TC | 2011-2012 Season | Next TC ->>

click for intensity scale information  Lat/long Grid: Show Hide

 Date Labels: Show Hide

Operational Tropical Cyclone Data : JTWC Advisories

Name: BENILDE
Number: 1204

25 Dec 2011 12:00 UTC to 05 Jan 2012 12:00 UTC

    date/time    lat    long     hPa   cat  kts
2011-12-25 12    6.9    95.5    1010         15          
2011-12-25 18    7.2    95.4    1010         15          
2011-12-26 00    7.4    95.3    1010         15          
2011-12-26 06    7.7    95.3    1010         15          
2011-12-26 12    8.0    95.3    1010         15          
2011-12-26 18    8.7    95.2    1010         15          
2011-12-27 00    9.7    95.0    1007         20          
2011-12-27 06   10.6    94.6    1004         25          
2011-12-27 12   11.4    94.0    1004         25          
2011-12-27 18   11.6    92.8    1000         30          
2011-12-28 00   11.9    91.2    1000         30          
2011-12-28 06   12.1    89.9     996    1    35          
2011-12-28 12   12.2    88.5     996    1    35          
2011-12-28 18   12.5    87.3     996    1    35          
2011-12-29 00   12.6    86.5     996    1    35          
2011-12-29 06   12.6    85.3     996    1    35          
2011-12-29 12   12.8    84.1     993    1    40          
2011-12-29 18   13.2    82.6     989    1    45          
2011-12-30 00   13.2    81.0     985    2    50          
2011-12-30 06   13.3    79.6     985    2    50          
2011-12-30 12   13.5    78.6     982    2    55          
2011-12-30 18   13.7    77.9     970    3    70          
2011-12-31 00   14.3    77.3     959    3    85          
2011-12-31 06   14.7    76.6     956    4    90          
2011-12-31 12   15.3    76.0     956    4    90          
2011-12-31 18   15.9    75.6     956    4    90          
2012-01-01 00   16.5    75.2     963    3    80          
2012-01-01 06   16.9    75.1     963    3    80          
2012-01-01 12   17.6    74.8     959    3    85          
2012-01-01 18   18.4    74.3     959    3    85          
2012-01-02 00   19.2    73.8     967    3    75          
2012-01-02 06   19.7    73.9     967    3    75          
2012-01-02 12   20.4    73.6     967    3    75          
2012-01-02 18   20.9    73.3     974    3    65          
2012-01-02 18   20.9    73.3     974    3    65          
2012-01-03 00   21.3    73.1     982    2    55          
2012-01-03 06   21.6    73.0     982    2    55          
2012-01-03 12   22.1    73.3     985    2    50          
2012-01-03 18   21.8    73.5     993    1    40          
2012-01-04 00   21.5    73.7     996    1    35          
2012-01-04 06   21.9    74.7     996    1    35          
2012-01-04 12   23.0    75.1    1000         30          
2012-01-04 18   23.4    74.8    1000         30          
2012-01-05 00   23.6    74.3     996    1    35          
2012-01-05 06   24.2    75.0     993    1    40          
2012-01-05 12   25.1    74.3     993    1    40          
Winds are 10-min average.

Tropical cyclone tracks developed by Michael Bath using operational warnings and advisories and Google Maps.


[Australian Severe Weather index] [Copyright Notice] [Email Contacts] [Search This Site] [Privacy Policy]
Document: tropical_cyclone_benilde.htm Updated: 2 May 2017